sensor_id;sensor_type;location;lat;lon;timestamp;pressure;altitude;pressure_sealevel;temperature;humidity
25947;BME280;13745;51.470;9.894;2022-08-01T00:00:08;99324.41;;;21.92;67.17
25947;BME280;13745;51.470;9.894;2022-08-01T00:02:55;99326.34;;;21.91;67.24
25947;BME280;13745;51.470;9.894;2022-08-01T00:05:42;99318.44;;;21.90;67.15
25947;BME280;13745;51.470;9.894;2022-08-01T00:08:28;99321.56;;;21.88;67.21
25947;BME280;13745;51.470;9.894;2022-08-01T00:11:14;99327.03;;;21.85;67.31
25947;BME280;13745;51.470;9.894;2022-08-01T00:14:00;99323.09;;;21.86;67.24
25947;BME280;13745;51.470;9.894;2022-08-01T00:16:46;99329.41;;;21.86;67.27
25947;BME280;13745;51.470;9.894;2022-08-01T00:19:32;99317.59;;;21.86;67.39
25947;BME280;13745;51.470;9.894;2022-08-01T00:22:20;99317.59;;;21.86;67.42
25947;BME280;13745;51.470;9.894;2022-08-01T00:25:06;99328.63;;;21.86;67.42
25947;BME280;13745;51.470;9.894;2022-08-01T00:27:52;99319.16;;;21.87;67.42
25947;BME280;13745;51.470;9.894;2022-08-01T00:30:38;99313.66;;;21.87;67.33
25947;BME280;13745;51.470;9.894;2022-08-01T00:33:24;99312.13;;;21.89;67.35
25947;BME280;13745;51.470;9.894;2022-08-01T00:36:10;99323.94;;;21.90;67.35
25947;BME280;13745;51.470;9.894;2022-08-01T00:38:57;99309.00;;;21.91;67.39
25947;BME280;13745;51.470;9.894;2022-08-01T00:41:43;99319.16;;;21.87;67.64
25947;BME280;13745;51.470;9.894;2022-08-01T00:44:29;99312.50;;;21.88;67.57
25947;BME280;13745;51.470;9.894;2022-08-01T00:47:15;99304.22;;;21.88;67.65
25947;BME280;13745;51.470;9.894;2022-08-01T00:50:03;99308.56;;;21.89;67.73
25947;BME280;13745;51.470;9.894;2022-08-01T00:52:48;99310.53;;;21.88;67.68
25947;BME280;13745;51.470;9.894;2022-08-01T00:55:36;99304.22;;;21.88;67.73
25947;BME280;13745;51.470;9.894;2022-08-01T00:58:22;99305.00;;;21.88;67.82
25947;BME280;13745;51.470;9.894;2022-08-01T01:01:08;99301.03;;;21.86;67.97
25947;BME280;13745;51.470;9.894;2022-08-01T01:03:54;99302.63;;;21.87;68.01
25947;BME280;13745;51.470;9.894;2022-08-01T01:06:44;99298.59;;;21.81;68.16
25947;BME280;13745;51.470;9.894;2022-08-01T01:09:36;99297.44;;;21.82;68.11
25947;BME280;13745;51.470;9.894;2022-08-01T01:12:30;99297.00;;;21.80;68.28
25947;BME280;13745;51.470;9.894;2022-08-01T01:15:22;99288.28;;;21.78;68.42
25947;BME280;13745;51.470;9.894;2022-08-01T01:18:11;99287.50;;;21.77;68.39
25947;BME280;13745;51.470;9.894;2022-08-01T01:21:03;99286.69;;;21.77;68.57
25947;BME280;13745;51.470;9.894;2022-08-01T01:24:03;99291.78;;;21.75;68.66
25947;BME280;13745;51.470;9.894;2022-08-01T01:26:57;99294.50;;;21.72;68.63
25947;BME280;13745;51.470;9.894;2022-08-01T01:29:51;99296.03;;;21.69;68.82
25947;BME280;13745;51.470;9.894;2022-08-01T01:32:39;99294.03;;;21.66;68.87
25947;BME280;13745;51.470;9.894;2022-08-01T01:35:31;99287.69;;;21.66;68.74
25947;BME280;13745;51.470;9.894;2022-08-01T01:38:20;99299.09;;;21.64;68.94
25947;BME280;13745;51.470;9.894;2022-08-01T01:41:07;99303.00;;;21.63;68.97
25947;BME280;13745;51.470;9.894;2022-08-01T01:43:54;99298.28;;;21.64;69.00
25947;BME280;13745;51.470;9.894;2022-08-01T01:46:42;99297.50;;;21.63;69.10
25947;BME280;13745;51.470;9.894;2022-08-01T01:49:29;99294.03;;;21.66;68.91
25947;BME280;13745;51.470;9.894;2022-08-01T01:52:16;99301.47;;;21.66;68.92
25947;BME280;13745;51.470;9.894;2022-08-01T01:55:06;99291.97;;;21.63;69.11
25947;BME280;13745;51.470;9.894;2022-08-01T01:57:54;99303.00;;;21.63;69.01
25947;BME280;13745;51.470;9.894;2022-08-01T02:00:42;99303.00;;;21.63;69.00
25947;BME280;13745;51.470;9.894;2022-08-01T02:03:31;99310.91;;;21.65;69.07
25947;BME280;13745;51.470;9.894;2022-08-01T02:06:21;99321.59;;;21.66;69.00
25947;BME280;13745;51.470;9.894;2022-08-01T02:09:08;99317.66;;;21.67;68.94
25947;BME280;13745;51.470;9.894;2022-08-01T02:11:55;99320.44;;;21.67;69.04
25947;BME280;13745;51.470;9.894;2022-08-01T02:14:44;99318.00;;;21.66;69.02
25947;BME280;13745;51.470;9.894;2022-08-01T02:17:36;99316.88;;;21.67;69.17
25947;BME280;13745;51.470;9.894;2022-08-01T02:20:27;99310.19;;;21.68;69.06
25947;BME280;13745;51.470;9.894;2022-08-01T02:23:15;99311.69;;;21.65;69.19
25947;BME280;13745;51.470;9.894;2022-08-01T02:26:03;99307.81;;;21.66;69.20
25947;BME280;13745;51.470;9.894;2022-08-01T02:28:56;99311.41;;;21.70;69.14
25947;BME280;13745;51.470;9.894;2022-08-01T02:31:45;99307.06;;;21.69;69.03
25947;BME280;13745;51.470;9.894;2022-08-01T02:34:32;99298.78;;;21.69;69.03
25947;BME280;13745;51.470;9.894;2022-08-01T02:37:22;99303.16;;;21.70;68.98
25947;BME280;13745;51.470;9.894;2022-08-01T02:40:12;99306.97;;;21.66;69.17
25947;BME280;13745;51.470;9.894;2022-08-01T02:43:00;99314.03;;;21.63;69.23
25947;BME280;13745;51.470;9.894;2022-08-01T02:45:51;99313.25;;;21.63;69.25
25947;BME280;13745;51.470;9.894;2022-08-01T02:48:38;99316.78;;;21.63;69.19
25947;BME280;13745;51.470;9.894;2022-08-01T02:51:26;99303.00;;;21.63;69.27
25947;BME280;13745;51.470;9.894;2022-08-01T02:54:16;99303.81;;;21.64;69.22
25947;BME280;13745;51.470;9.894;2022-08-01T02:57:04;99307.34;;;21.64;69.20
25947;BME280;13745;51.470;9.894;2022-08-01T02:59:52;99301.41;;;21.62;69.33
25947;BME280;13745;51.470;9.894;2022-08-01T03:02:40;99306.94;;;21.62;69.28
25947;BME280;13745;51.470;9.894;2022-08-01T03:05:26;99309.25;;;21.60;69.33
25947;BME280;13745;51.470;9.894;2022-08-01T03:08:13;99307.63;;;21.56;69.55
25947;BME280;13745;51.470;9.894;2022-08-01T03:11:03;99308.78;;;21.55;69.55
25947;BME280;13745;51.470;9.894;2022-08-01T03:13:51;99302.47;;;21.55;69.58
25947;BME280;13745;51.470;9.894;2022-08-01T03:16:40;99298.19;;;21.57;69.55
25947;BME280;13745;51.470;9.894;2022-08-01T03:19:27;99298.97;;;21.57;69.51
25947;BME280;13745;51.470;9.894;2022-08-01T03:22:15;99303.69;;;21.57;69.50
25947;BME280;13745;51.470;9.894;2022-08-01T03:25:02;99298.94;;;21.54;69.66
25947;BME280;13745;51.470;9.894;2022-08-01T03:27:55;99301.31;;;21.55;69.67
25947;BME280;13745;51.470;9.894;2022-08-01T03:30:42;99303.63;;;21.54;69.65
25947;BME280;13745;51.470;9.894;2022-08-01T03:33:28;99310.28;;;21.53;69.70
25947;BME280;13745;51.470;9.894;2022-08-01T03:36:15;99306.81;;;21.55;69.56
25947;BME280;13745;51.470;9.894;2022-08-01T03:39:03;99328.56;;;21.60;69.53
25947;BME280;13745;51.470;9.894;2022-08-01T03:41:54;99325.84;;;21.64;69.55
25947;BME280;13745;51.470;9.894;2022-08-01T03:44:47;99328.19;;;21.62;69.70
25947;BME280;13745;51.470;9.894;2022-08-01T03:47:34;99332.47;;;21.59;69.52
25947;BME280;13745;51.470;9.894;2022-08-01T03:50:22;99342.28;;;21.57;69.67
25947;BME280;13745;51.470;9.894;2022-08-01T03:53:10;99330.38;;;21.53;69.70
25947;BME280;13745;51.470;9.894;2022-08-01T03:55:58;99335.09;;;21.53;69.60
25947;BME280;13745;51.470;9.894;2022-08-01T03:58:45;99334.31;;;21.52;69.65
25947;BME280;13745;51.470;9.894;2022-08-01T04:01:33;99335.09;;;21.53;69.71
25947;BME280;13745;51.470;9.894;2022-08-01T04:04:19;99333.94;;;21.54;69.68
25947;BME280;13745;51.470;9.894;2022-08-01T04:07:21;99342.19;;;21.54;70.04
25947;BME280;13745;51.470;9.894;2022-08-01T04:10:07;99341.06;;;21.55;69.83
25947;BME280;13745;51.470;9.894;2022-08-01T04:12:53;99342.19;;;21.54;69.87
25947;BME280;13745;51.470;9.894;2022-08-01T04:15:39;99341.50;;;21.56;69.79
25947;BME280;13745;51.470;9.894;2022-08-01T04:18:26;99359.63;;;21.57;69.97
25947;BME280;13745;51.470;9.894;2022-08-01T04:21:12;99349.03;;;21.59;70.00
25947;BME280;13745;51.470;9.894;2022-08-01T04:24:02;99351.03;;;21.62;70.01
25947;BME280;13745;51.470;9.894;2022-08-01T04:26:50;99358.13;;;21.63;70.04
25947;BME280;13745;51.470;9.894;2022-08-01T04:29:38;99359.06;;;21.71;69.87
25947;BME280;13745;51.470;9.894;2022-08-01T04:32:25;99372.50;;;21.72;69.86
25947;BME280;13745;51.470;9.894;2022-08-01T04:35:15;99360.63;;;21.68;69.94
25947;BME280;13745;51.470;9.894;2022-08-01T04:38:03;99362.84;;;21.63;70.02
25947;BME280;13745;51.470;9.894;2022-08-01T04:40:50;99371.91;;;21.63;70.08
25947;BME280;13745;51.470;9.894;2022-08-01T04:43:38;99373.88;;;21.63;70.00
25947;BME280;13745;51.470;9.894;2022-08-01T04:46:24;99375.41;;;21.60;70.04
25947;BME280;13745;51.470;9.894;2022-08-01T04:49:10;99373.41;;;21.57;69.95
25947;BME280;13745;51.470;9.894;2022-08-01T04:51:58;99386.03;;;21.58;69.96
25947;BME280;13745;51.470;9.894;2022-08-01T04:54:44;99382.53;;;21.61;69.85
25947;BME280;13745;51.470;9.894;2022-08-01T04:57:31;99384.91;;;21.63;69.82
25947;BME280;13745;51.470;9.894;2022-08-01T05:00:17;99394.41;;;21.65;69.65
25947;BME280;13745;51.470;9.894;2022-08-01T05:03:03;99396.81;;;21.67;69.76
25947;BME280;13745;51.470;9.894;2022-08-01T05:05:49;99391.38;;;21.70;69.77
25947;BME280;13745;51.470;9.894;2022-08-01T05:08:36;99398.56;;;21.78;69.85
25947;BME280;13745;51.470;9.894;2022-08-01T05:11:22;99405.09;;;21.89;69.71
25947;BME280;13745;51.470;9.894;2022-08-01T05:14:08;99401.56;;;22.10;69.21
25947;BME280;13745;51.470;9.894;2022-08-01T05:16:54;99400.63;;;22.25;68.71
25947;BME280;13745;51.470;9.894;2022-08-01T05:19:40;99408.28;;;22.35;68.54
25947;BME280;13745;51.470;9.894;2022-08-01T05:22:27;99404.78;;;22.38;68.48
25947;BME280;13745;51.470;9.894;2022-08-01T05:25:14;99401.28;;;22.41;68.30
25947;BME280;13745;51.470;9.894;2022-08-01T05:28:00;99407.59;;;22.41;68.15
25947;BME280;13745;51.470;9.894;2022-08-01T05:30:46;99409.69;;;22.47;68.04
25947;BME280;13745;51.470;9.894;2022-08-01T05:33:32;99411.81;;;22.57;67.81
25947;BME280;13745;51.470;9.894;2022-08-01T05:36:18;99409.53;;;22.63;67.78
25947;BME280;13745;51.470;9.894;2022-08-01T05:39:04;99405.44;;;22.79;67.55
25947;BME280;13745;51.470;9.894;2022-08-01T05:41:51;99417.06;;;22.91;67.32
25947;BME280;13745;51.470;9.894;2022-08-01T05:44:37;99421.25;;;23.07;66.94
25947;BME280;13745;51.470;9.894;2022-08-01T05:47:23;99415.91;;;23.21;66.75
25947;BME280;13745;51.470;9.894;2022-08-01T05:50:09;99422.38;;;23.32;66.24
25947;BME280;13745;51.470;9.894;2022-08-01T05:52:54;99422.66;;;23.52;65.86
25947;BME280;13745;51.470;9.894;2022-08-01T05:55:40;99425.25;;;23.71;65.16
25947;BME280;13745;51.470;9.894;2022-08-01T05:58:27;99426.16;;;23.81;64.56
25947;BME280;13745;51.470;9.894;2022-08-01T06:01:13;99423.28;;;23.71;64.95
25947;BME280;13745;51.470;9.894;2022-08-01T06:03:59;99424.88;;;23.72;64.61
25947;BME280;13745;51.470;9.894;2022-08-01T06:06:45;99429.97;;;23.70;64.41
25947;BME280;13745;51.470;9.894;2022-08-01T06:09:31;99431.44;;;23.61;64.63
25947;BME280;13745;51.470;9.894;2022-08-01T06:12:16;99438.16;;;23.60;64.24
25947;BME280;13745;51.470;9.894;2022-08-01T06:15:05;99428.44;;;23.73;63.93
25947;BME280;13745;51.470;9.894;2022-08-01T06:17:51;99435.38;;;23.92;63.39
25947;BME280;13745;51.470;9.894;2022-08-01T06:20:37;99435.94;;;24.08;62.99
25947;BME280;13745;51.470;9.894;2022-08-01T06:23:23;99437.56;;;24.12;62.85
25947;BME280;13745;51.470;9.894;2022-08-01T06:26:09;99445.47;;;24.14;62.90
25947;BME280;13745;51.470;9.894;2022-08-01T06:28:55;99444.50;;;23.96;62.89
25947;BME280;13745;51.470;9.894;2022-08-01T06:31:42;99451.38;;;23.77;63.70
25947;BME280;13745;51.470;9.894;2022-08-01T06:34:28;99448.84;;;23.61;63.95
25947;BME280;13745;51.470;9.894;2022-08-01T06:37:14;99452.66;;;23.50;64.16
25947;BME280;13745;51.470;9.894;2022-08-01T06:42:46;99452.09;;;23.38;64.19
25947;BME280;13745;51.470;9.894;2022-08-01T06:45:32;99453.19;;;23.34;64.04
25947;BME280;13745;51.470;9.894;2022-08-01T06:48:19;99455.66;;;23.38;63.96
25947;BME280;13745;51.470;9.894;2022-08-01T06:51:05;99466.09;;;23.52;63.39
25947;BME280;13745;51.470;9.894;2022-08-01T06:53:53;99457.09;;;23.58;63.79
25947;BME280;13745;51.470;9.894;2022-08-01T06:56:39;99465.41;;;23.58;63.48
25947;BME280;13745;51.470;9.894;2022-08-01T06:59:25;99463.75;;;23.54;63.68
25947;BME280;13745;51.470;9.894;2022-08-01T07:02:11;99471.59;;;23.48;63.70
25947;BME280;13745;51.470;9.894;2022-08-01T07:04:58;99466.81;;;23.45;63.89
25947;BME280;13745;51.470;9.894;2022-08-01T07:07:45;99465.81;;;23.60;63.50
25947;BME280;13745;51.470;9.894;2022-08-01T07:10:31;99460.94;;;23.82;63.04
25947;BME280;13745;51.470;9.894;2022-08-01T07:13:16;99467.44;;;24.00;62.42
25947;BME280;13745;51.470;9.894;2022-08-01T07:16:05;99455.84;;;24.20;61.94
25947;BME280;13745;51.470;9.894;2022-08-01T07:18:51;99461.88;;;24.32;61.75
25947;BME280;13745;51.470;9.894;2022-08-01T07:21:39;99464.78;;;24.46;61.50
25947;BME280;13745;51.470;9.894;2022-08-01T07:24:26;99457.69;;;24.52;61.14
25947;BME280;13745;51.470;9.894;2022-08-01T07:27:13;99460.13;;;24.57;60.85
25947;BME280;13745;51.470;9.894;2022-08-01T07:29:59;99463.78;;;24.68;60.49
25947;BME280;13745;51.470;9.894;2022-08-01T07:32:45;99463.78;;;24.68;60.37
25947;BME280;13745;51.470;9.894;2022-08-01T07:35:31;99460.94;;;24.61;60.47
25947;BME280;13745;51.470;9.894;2022-08-01T07:38:18;99458.47;;;24.49;60.87
25947;BME280;13745;51.470;9.894;2022-08-01T07:41:04;99468.66;;;24.38;60.96
25947;BME280;13745;51.470;9.894;2022-08-01T07:43:50;99464.56;;;24.26;61.04
25947;BME280;13745;51.470;9.894;2022-08-01T07:46:36;99476.41;;;24.19;61.36
25947;BME280;13745;51.470;9.894;2022-08-01T07:49:22;99478.25;;;24.08;61.42
25947;BME280;13745;51.470;9.894;2022-08-01T07:52:08;99477.69;;;23.96;61.64
25947;BME280;13745;51.470;9.894;2022-08-01T07:54:55;99480.13;;;24.01;61.45
25947;BME280;13745;51.470;9.894;2022-08-01T07:57:41;99482.13;;;24.04;61.79
25947;BME280;13745;51.470;9.894;2022-08-01T08:00:27;99478.53;;;24.00;61.74
25947;BME280;13745;51.470;9.894;2022-08-01T08:03:13;99482.06;;;23.97;61.28
25947;BME280;13745;51.470;9.894;2022-08-01T08:05:59;99481.66;;;23.95;61.61
25947;BME280;13745;51.470;9.894;2022-08-01T08:08:45;99478.53;;;24.00;61.12
25947;BME280;13745;51.470;9.894;2022-08-01T08:11:32;99480.22;;;24.08;61.04
25947;BME280;13745;51.470;9.894;2022-08-01T08:14:18;99480.22;;;24.08;61.24
25947;BME280;13745;51.470;9.894;2022-08-01T08:17:07;99488.28;;;24.23;60.77
25947;BME280;13745;51.470;9.894;2022-08-01T08:19:53;99488.28;;;24.23;60.68
25947;BME280;13745;51.470;9.894;2022-08-01T08:22:39;99493.38;;;24.18;61.03
25947;BME280;13745;51.470;9.894;2022-08-01T08:25:25;99499.25;;;24.13;61.02
25947;BME280;13745;51.470;9.894;2022-08-01T08:28:13;99489.34;;;24.12;61.07
25947;BME280;13745;51.470;9.894;2022-08-01T08:30:59;99499.19;;;24.06;60.86
25947;BME280;13745;51.470;9.894;2022-08-01T08:33:44;99496.31;;;23.99;60.92
25947;BME280;13745;51.470;9.894;2022-08-01T08:36:30;99495.88;;;23.97;61.26
25947;BME280;13745;51.470;9.894;2022-08-01T08:39:16;99508.69;;;24.05;60.91
25947;BME280;13745;51.470;9.894;2022-08-01T08:42:06;99504.34;;;24.07;60.81
25947;BME280;13745;51.470;9.894;2022-08-01T08:44:53;99497.13;;;24.03;60.94
25947;BME280;13745;51.470;9.894;2022-08-01T08:47:41;99502.38;;;24.08;60.70
25947;BME280;13745;51.470;9.894;2022-08-01T08:50:30;99510.72;;;24.15;60.79
25947;BME280;13745;51.470;9.894;2022-08-01T08:53:18;99511.13;;;24.13;60.75
25947;BME280;13745;51.470;9.894;2022-08-01T08:56:06;99515.00;;;24.05;60.77
25947;BME280;13745;51.470;9.894;2022-08-01T08:58:52;99512.13;;;23.99;60.86
25947;BME280;13745;51.470;9.894;2022-08-01T09:01:40;99522.00;;;24.00;61.25
25947;BME280;13745;51.470;9.894;2022-08-01T09:04:26;99524.09;;;24.06;60.93
25947;BME280;13745;51.470;9.894;2022-08-01T09:07:12;99525.38;;;24.15;61.17
25947;BME280;13745;51.470;9.894;2022-08-01T09:09:58;99521.94;;;24.28;60.75
25947;BME280;13745;51.470;9.894;2022-08-01T09:13:07;99520.81;;;24.29;60.62
25947;BME280;13745;51.470;9.894;2022-08-01T09:15:56;99525.56;;;24.32;60.59
25947;BME280;13745;51.470;9.894;2022-08-01T09:18:44;99529.72;;;24.52;60.44
25947;BME280;13745;51.470;9.894;2022-08-01T09:21:30;99534.88;;;24.93;59.74
25947;BME280;13745;51.470;9.894;2022-08-01T09:24:16;99539.16;;;25.36;58.57
25947;BME280;13745;51.470;9.894;2022-08-01T09:27:16;99540.84;;;25.51;58.14
25947;BME280;13745;51.470;9.894;2022-08-01T09:30:10;99529.41;;;25.62;57.97
25947;BME280;13745;51.470;9.894;2022-08-01T09:32:59;99539.81;;;25.86;57.52
25947;BME280;13745;51.470;9.894;2022-08-01T09:35:53;99545.03;;;25.94;57.39
25947;BME280;13745;51.470;9.894;2022-08-01T09:38:40;99538.72;;;26.04;57.11
25947;BME280;13745;51.470;9.894;2022-08-01T09:41:30;99540.00;;;26.27;56.69
25947;BME280;13745;51.470;9.894;2022-08-01T09:44:17;99536.53;;;26.78;55.39
25947;BME280;13745;51.470;9.894;2022-08-01T09:47:02;99532.16;;;27.32;54.01
25947;BME280;13745;51.470;9.894;2022-08-01T09:49:53;99540.50;;;27.45;53.81
25947;BME280;13745;51.470;9.894;2022-08-01T09:52:41;99544.47;;;27.10;54.01
25947;BME280;13745;51.470;9.894;2022-08-01T09:55:27;99546.47;;;26.82;54.76
25947;BME280;13745;51.470;9.894;2022-08-01T09:58:12;99543.69;;;26.72;55.10
25947;BME280;13745;51.470;9.894;2022-08-01T10:00:59;99544.50;;;26.97;54.71
25947;BME280;13745;51.470;9.894;2022-08-01T10:03:45;99550.03;;;27.17;54.28
25947;BME280;13745;51.470;9.894;2022-08-01T10:06:31;99545.25;;;27.04;54.31
25947;BME280;13745;51.470;9.894;2022-08-01T10:09:28;99541.31;;;26.95;54.46
25947;BME280;13745;51.470;9.894;2022-08-01T10:12:16;99547.28;;;27.31;53.69
25947;BME280;13745;51.470;9.894;2022-08-01T10:15:02;99541.88;;;28.05;52.49
25947;BME280;13745;51.470;9.894;2022-08-01T10:17:52;99551.22;;;28.55;51.79
25947;BME280;13745;51.470;9.894;2022-08-01T10:20:39;99541.44;;;28.83;51.05
25947;BME280;13745;51.470;9.894;2022-08-01T10:23:26;99542.53;;;29.00;50.97
25947;BME280;13745;51.470;9.894;2022-08-01T10:26:13;99545.34;;;28.89;50.35
25947;BME280;13745;51.470;9.894;2022-08-01T10:29:00;99544.00;;;28.61;50.69
25947;BME280;13745;51.470;9.894;2022-08-01T10:31:47;99536.81;;;28.60;50.07
25947;BME280;13745;51.470;9.894;2022-08-01T10:34:33;99540.38;;;28.64;49.46
25947;BME280;13745;51.470;9.894;2022-08-01T10:37:20;99533.31;;;29.06;48.60
25947;BME280;13745;51.470;9.894;2022-08-01T10:40:07;99527.19;;;29.61;47.55
25947;BME280;13745;51.470;9.894;2022-08-01T10:42:56;99526.47;;;29.86;47.13
25947;BME280;13745;51.470;9.894;2022-08-01T10:45:42;99531.75;;;29.81;46.80
25947;BME280;13745;51.470;9.894;2022-08-01T10:48:31;99523.03;;;29.75;46.51
25947;BME280;13745;51.470;9.894;2022-08-01T10:51:19;99538.13;;;29.81;46.40
25947;BME280;13745;51.470;9.894;2022-08-01T10:54:07;99541.97;;;29.91;46.03
25947;BME280;13745;51.470;9.894;2022-08-01T10:56:54;99530.78;;;29.94;45.90
25947;BME280;13745;51.470;9.894;2022-08-01T10:59:50;99520.41;;;29.91;45.88
25947;BME280;13745;51.470;9.894;2022-08-01T11:02:36;99529.53;;;29.98;46.05
25947;BME280;13745;51.470;9.894;2022-08-01T11:05:31;99527.69;;;29.85;46.09
25947;BME280;13745;51.470;9.894;2022-08-01T11:08:21;99533.34;;;29.82;45.98
25947;BME280;13745;51.470;9.894;2022-08-01T11:11:07;99530.97;;;29.80;45.66
25947;BME280;13745;51.470;9.894;2022-08-01T11:14:01;99527.47;;;30.06;45.04
25947;BME280;13745;51.470;9.894;2022-08-01T11:16:50;99538.63;;;30.35;44.48
25947;BME280;13745;51.470;9.894;2022-08-01T11:20:07;99534.91;;;30.15;44.04
25947;BME280;13745;51.470;9.894;2022-08-01T11:23:23;99542.81;;;29.88;44.24
25947;BME280;13745;51.470;9.894;2022-08-01T11:26:19;99530.78;;;29.94;44.36
25947;BME280;13745;51.470;9.894;2022-08-01T11:29:18;99533.31;;;30.15;43.65
25947;BME280;13745;51.470;9.894;2022-08-01T11:32:26;99539.06;;;30.34;43.21
25947;BME280;13745;51.470;9.894;2022-08-01T11:35:12;99547.03;;;30.35;43.45
25947;BME280;13745;51.470;9.894;2022-08-01T11:38:22;99538.88;;;30.18;43.85
25947;BME280;13745;51.470;9.894;2022-08-01T11:41:11;99550.38;;;30.23;43.78
25947;BME280;13745;51.470;9.894;2022-08-01T11:43:59;99553.28;;;30.46;43.91
25947;BME280;13745;51.470;9.894;2022-08-01T11:46:50;99554.13;;;30.43;43.78
25947;BME280;13745;51.470;9.894;2022-08-01T11:49:46;99551.31;;;30.14;44.47
25947;BME280;13745;51.470;9.894;2022-08-01T11:52:33;99548.09;;;30.15;44.58
25947;BME280;13745;51.470;9.894;2022-08-01T11:55:21;99552.81;;;30.21;44.53
25947;BME280;13745;51.470;9.894;2022-08-01T11:58:07;99557.84;;;30.33;44.10
25947;BME280;13745;51.470;9.894;2022-08-01T12:00:55;99559.59;;;30.50;43.94
25947;BME280;13745;51.470;9.894;2022-08-01T12:03:41;99550.72;;;30.58;44.15
25947;BME280;13745;51.470;9.894;2022-08-01T12:06:28;99551.88;;;30.61;44.10
25947;BME280;13745;51.470;9.894;2022-08-01T12:09:16;99556.16;;;30.68;43.87
25947;BME280;13745;51.470;9.894;2022-08-01T12:12:03;99557.84;;;30.62;43.42
25947;BME280;13745;51.470;9.894;2022-08-01T12:14:53;99548.38;;;30.53;43.59
25947;BME280;13745;51.470;9.894;2022-08-01T12:17:41;99551.41;;;30.65;43.26
25947;BME280;13745;51.470;9.894;2022-08-01T12:20:29;99555.16;;;30.82;43.02
25947;BME280;13745;51.470;9.894;2022-08-01T12:23:17;99556.38;;;31.03;42.34
25947;BME280;13745;51.470;9.894;2022-08-01T12:26:03;99552.84;;;31.25;41.84
25947;BME280;13745;51.470;9.894;2022-08-01T12:28:50;99550.75;;;31.51;40.91
25947;BME280;13745;51.470;9.894;2022-08-01T12:31:36;99550.22;;;31.79;41.13
25947;BME280;13745;51.470;9.894;2022-08-01T12:34:26;99550.25;;;31.98;40.59
25947;BME280;13745;51.470;9.894;2022-08-01T12:37:13;99553.97;;;31.92;40.23
25947;BME280;13745;51.470;9.894;2022-08-01T12:40:02;99549.16;;;31.73;40.13
25947;BME280;13745;51.470;9.894;2022-08-01T12:42:56;99549.88;;;31.58;40.55
25947;BME280;13745;51.470;9.894;2022-08-01T12:45:43;99546.00;;;31.49;40.27
25947;BME280;13745;51.470;9.894;2022-08-01T12:48:30;99543.63;;;31.47;40.31
25947;BME280;13745;51.470;9.894;2022-08-01T12:51:16;99548.53;;;31.43;40.97
25947;BME280;13745;51.470;9.894;2022-08-01T12:54:02;99547.13;;;31.32;41.16
25947;BME280;13745;51.470;9.894;2022-08-01T12:56:50;99546.56;;;31.18;41.16
25947;BME280;13745;51.470;9.894;2022-08-01T12:59:37;99548.44;;;31.47;40.78
25947;BME280;13745;51.470;9.894;2022-08-01T13:02:31;99546.00;;;31.49;40.71
25947;BME280;13745;51.470;9.894;2022-08-01T13:05:17;99548.34;;;31.31;40.69
25947;BME280;13745;51.470;9.894;2022-08-01T13:08:09;99535.06;;;31.35;40.58
25947;BME280;13745;51.470;9.894;2022-08-01T13:11:00;99534.38;;;31.05;41.24
25947;BME280;13745;51.470;9.894;2022-08-01T13:13:49;99540.56;;;30.93;41.84
25947;BME280;13745;51.470;9.894;2022-08-01T13:16:46;99550.22;;;30.89;41.62
25947;BME280;13745;51.470;9.894;2022-08-01T13:19:42;99556.03;;;31.01;41.73
25947;BME280;13745;51.470;9.894;2022-08-01T13:22:32;99549.06;;;31.12;41.39
25947;BME280;13745;51.470;9.894;2022-08-01T13:25:18;99553.44;;;30.87;41.90
25947;BME280;13745;51.470;9.894;2022-08-01T13:28:14;99563.66;;;30.45;42.38
25947;BME280;13745;51.470;9.894;2022-08-01T13:31:03;99565.22;;;29.84;42.72
25947;BME280;13745;51.470;9.894;2022-08-01T13:33:49;99565.00;;;29.25;43.30
25947;BME280;13745;51.470;9.894;2022-08-01T13:36:36;99570.88;;;28.88;43.42
25947;BME280;13745;51.470;9.894;2022-08-01T13:39:22;99567.97;;;28.48;43.84
25947;BME280;13745;51.470;9.894;2022-08-01T13:42:26;99555.81;;;28.08;44.72
25947;BME280;13745;51.470;9.894;2022-08-01T13:45:13;99561.44;;;27.94;44.82
25947;BME280;13745;51.470;9.894;2022-08-01T13:48:00;99555.50;;;27.92;45.06
25947;BME280;13745;51.470;9.894;2022-08-01T13:50:46;99557.13;;;27.83;44.68
25947;BME280;13745;51.470;9.894;2022-08-01T13:53:32;99547.56;;;27.74;44.87
25947;BME280;13745;51.470;9.894;2022-08-01T13:56:18;99556.28;;;27.76;45.61
25947;BME280;13745;51.470;9.894;2022-08-01T13:59:04;99567.03;;;27.74;45.80
25947;BME280;13745;51.470;9.894;2022-08-01T14:01:51;99565.06;;;27.64;46.31
25947;BME280;13745;51.470;9.894;2022-08-01T14:04:37;99560.34;;;27.51;46.47
25947;BME280;13745;51.470;9.894;2022-08-01T14:07:24;99561.56;;;27.40;46.62
25947;BME280;13745;51.470;9.894;2022-08-01T14:10:09;99565.94;;;27.34;46.96
25947;BME280;13745;51.470;9.894;2022-08-01T14:12:55;99563.56;;;27.29;47.19
25947;BME280;13745;51.470;9.894;2022-08-01T14:15:42;99565.97;;;27.30;47.11
25947;BME280;13745;51.470;9.894;2022-08-01T14:18:28;99565.94;;;27.34;47.47
25947;BME280;13745;51.470;9.894;2022-08-01T14:21:15;99563.56;;;27.36;47.29
25947;BME280;13745;51.470;9.894;2022-08-01T14:24:01;99565.13;;;27.40;47.41
25947;BME280;13745;51.470;9.894;2022-08-01T14:26:46;99581.81;;;27.40;47.44
25947;BME280;13745;51.470;9.894;2022-08-01T14:29:32;99570.72;;;27.43;47.12
25947;BME280;13745;51.470;9.894;2022-08-01T14:32:18;99570.69;;;27.57;46.71
25947;BME280;13745;51.470;9.894;2022-08-01T14:35:05;99573.81;;;27.83;46.15
25947;BME280;13745;51.470;9.894;2022-08-01T14:37:53;99568.19;;;28.00;45.72
25947;BME280;13745;51.470;9.894;2022-08-01T14:40:39;99572.81;;;28.31;45.10
25947;BME280;13745;51.470;9.894;2022-08-01T14:43:26;99563.88;;;28.63;44.93
25947;BME280;13745;51.470;9.894;2022-08-01T14:46:12;99560.59;;;28.81;45.29
25947;BME280;13745;51.470;9.894;2022-08-01T14:48:58;99570.03;;;28.98;45.20
25947;BME280;13745;51.470;9.894;2022-08-01T14:51:44;99581.13;;;29.08;44.53